createdAt,value
2023-02-09T00:00:02.423Z,14.93
2023-02-09T00:02:29.466Z,14.87
2023-02-09T00:04:56.424Z,17.60
2023-02-09T00:07:23.212Z,16.80
2023-02-09T00:09:51.506Z,16.90
2023-02-09T00:12:38.009Z,15.47
2023-02-09T00:15:06.620Z,15.53
2023-02-09T00:17:35.829Z,15.57
2023-02-09T00:20:04.424Z,16.20
2023-02-09T00:22:31.354Z,17.53
2023-02-09T00:24:58.031Z,15.20
2023-02-09T00:27:24.884Z,15.33
2023-02-09T00:29:51.577Z,16.60
2023-02-09T00:32:18.317Z,17.20
2023-02-09T00:34:45.036Z,14.90
2023-02-09T00:37:11.776Z,15.43
2023-02-09T00:39:38.395Z,15.77
2023-02-09T00:42:08.173Z,15.27
2023-02-09T00:44:36.592Z,16.93
2023-02-09T00:47:04.985Z,16.53
2023-02-09T00:49:32.627Z,16.57
2023-02-09T00:51:59.441Z,17.20
2023-02-09T00:54:26.279Z,15.90
2023-02-09T00:56:52.923Z,16.10
2023-02-09T00:59:19.689Z,15.63
2023-02-09T01:01:46.370Z,15.70
2023-02-09T01:04:13.088Z,16.40
2023-02-09T01:06:39.906Z,14.47
2023-02-09T01:09:06.534Z,15.60
2023-02-09T01:11:33.256Z,16.27
2023-02-09T01:14:01.013Z,15.43
2023-02-09T01:16:29.117Z,16.60
2023-02-09T01:18:56.089Z,15.50
2023-02-09T01:21:23.829Z,14.60
2023-02-09T01:23:50.543Z,16.30
2023-02-09T01:26:18.039Z,15.53
2023-02-09T01:28:47.680Z,16.80
2023-02-09T01:31:27.054Z,17.70
2023-02-09T01:33:55.395Z,15.10
2023-02-09T01:36:22.931Z,15.23
2023-02-09T01:38:50.349Z,16.20
2023-02-09T01:41:17.584Z,16.30
2023-02-09T01:43:48.412Z,15.80
2023-02-09T01:46:15.145Z,17.83
2023-02-09T01:48:41.948Z,17.50
2023-02-09T01:51:08.878Z,17.43
2023-02-09T01:53:35.633Z,16.23
2023-02-09T01:56:06.532Z,16.33
2023-02-09T01:58:33.995Z,15.90
2023-02-09T02:01:01.298Z,16.90
2023-02-09T02:03:29.024Z,15.43
2023-02-09T02:06:14.043Z,16.10
2023-02-09T02:09:02.972Z,15.30
2023-02-09T02:11:29.880Z,16.77
2023-02-09T02:13:57.453Z,17.07
2023-02-09T02:16:42.842Z,15.93
2023-02-09T02:19:19.837Z,15.90
2023-02-09T02:22:08.751Z,16.37
2023-02-09T02:25:09.512Z,17.50
2023-02-09T02:28:22.240Z,16.30
2023-02-09T02:31:09.847Z,16.07
2023-02-09T02:34:06.333Z,15.80
2023-02-09T02:36:42.786Z,17.43
2023-02-09T02:39:23.337Z,16.40
2023-02-09T02:42:20.257Z,16.60
2023-02-09T02:44:58.245Z,16.47
2023-02-09T02:47:28.036Z,15.97
2023-02-09T02:50:05.919Z,16.30
2023-02-09T02:52:32.610Z,16.50
2023-02-09T02:55:08.014Z,16.60
2023-02-09T02:57:37.766Z,17.10
2023-02-09T03:00:15.138Z,16.50
2023-02-09T03:02:47.616Z,16.20
2023-02-09T03:05:17.001Z,16.77
2023-02-09T03:07:43.722Z,16.63
2023-02-09T03:10:32.596Z,16.07
2023-02-09T03:13:11.527Z,15.17
2023-02-09T03:15:38.231Z,16.20
2023-02-09T03:18:35.152Z,14.83
2023-02-09T03:21:18.961Z,16.43
2023-02-09T03:24:05.411Z,16.13
2023-02-09T03:26:40.055Z,15.53
2023-02-09T03:29:09.137Z,15.70
2023-02-09T03:31:36.990Z,15.50
2023-02-09T03:34:04.894Z,16.30
2023-02-09T03:36:34.575Z,17.33
2023-02-09T03:39:02.131Z,15.77
2023-02-09T03:41:28.902Z,16.47
2023-02-09T03:44:14.418Z,16.90
2023-02-09T03:46:43.570Z,14.63
2023-02-09T03:49:11.193Z,15.83
2023-02-09T03:51:37.966Z,16.20
2023-02-09T03:54:04.639Z,16.63
2023-02-09T03:56:31.325Z,16.10
2023-02-09T03:58:57.967Z,15.50
2023-02-09T04:01:24.717Z,16.17
2023-02-09T04:03:51.346Z,16.23
2023-02-09T04:06:18.027Z,14.80
2023-02-09T04:08:44.686Z,14.87
2023-02-09T04:11:11.354Z,15.27
2023-02-09T04:13:37.956Z,17.30
2023-02-09T04:16:05.053Z,15.00
2023-02-09T04:18:31.849Z,15.87
2023-02-09T04:20:58.521Z,17.13
2023-02-09T04:23:25.203Z,14.80
2023-02-09T04:25:51.936Z,16.07
2023-02-09T04:28:18.730Z,17.33
2023-02-09T04:30:45.749Z,15.00
2023-02-09T04:33:12.656Z,15.90
2023-02-09T04:35:39.286Z,15.23
2023-02-09T04:38:05.954Z,16.03
2023-02-09T04:40:32.651Z,14.83
2023-02-09T04:42:59.329Z,14.67
2023-02-09T04:45:26.128Z,16.20
2023-02-09T04:47:52.871Z,16.37
2023-02-09T04:50:19.656Z,14.80
2023-02-09T04:52:46.273Z,16.00
2023-02-09T04:55:12.911Z,15.90
2023-02-09T04:57:58.297Z,18.03
2023-02-09T05:00:25.036Z,25.97
2023-02-09T05:02:51.724Z,21.63
2023-02-09T05:05:19.683Z,18.00
2023-02-09T05:07:46.654Z,17.17
2023-02-09T05:10:13.310Z,18.20
2023-02-09T05:12:39.933Z,16.90
2023-02-09T05:15:06.909Z,17.23
2023-02-09T05:17:33.632Z,17.47
2023-02-09T05:20:00.556Z,17.13
2023-02-09T05:22:27.761Z,17.60
2023-02-09T05:24:54.391Z,19.30
2023-02-09T05:27:21.108Z,17.40
2023-02-09T05:29:47.785Z,18.40
2023-02-09T05:32:14.543Z,18.30
2023-02-09T05:34:41.261Z,17.60
2023-02-09T05:37:07.908Z,16.60
2023-02-09T05:39:34.556Z,15.90
2023-02-09T05:42:16.554Z,17.97
2023-02-09T05:44:45.127Z,15.60
2023-02-09T05:47:12.273Z,14.57
2023-02-09T05:49:39.200Z,16.00
2023-02-09T05:52:06.633Z,14.50
2023-02-09T05:54:33.507Z,14.97
2023-02-09T05:57:00.357Z,15.50
2023-02-09T05:59:27.070Z,17.90
2023-02-09T06:01:54.180Z,15.30
2023-02-09T06:04:20.961Z,14.87
2023-02-09T06:06:47.686Z,14.73
2023-02-09T06:09:14.530Z,16.13
2023-02-09T06:11:41.307Z,14.20
2023-02-09T06:14:07.968Z,14.03
2023-02-09T06:16:34.651Z,16.07
2023-02-09T06:19:01.281Z,15.40
2023-02-09T06:21:28.141Z,16.40
2023-02-09T06:23:54.817Z,15.50
2023-02-09T06:26:21.591Z,17.97
2023-02-09T06:28:48.251Z,15.40
2023-02-09T06:31:15.139Z,15.93
2023-02-09T06:33:41.849Z,14.93
2023-02-09T06:36:09.179Z,16.23
2023-02-09T06:38:37.108Z,16.37
2023-02-09T06:41:05.193Z,16.53
2023-02-09T06:43:31.877Z,14.80
2023-02-09T06:45:58.680Z,16.53
2023-02-09T06:48:25.326Z,16.00
2023-02-09T06:50:52.139Z,19.10
2023-02-09T06:53:19.051Z,19.50
2023-02-09T06:55:46.034Z,20.70
2023-02-09T06:58:12.635Z,22.03
2023-02-09T07:00:39.236Z,17.40
2023-02-09T07:03:06.020Z,16.97
2023-02-09T07:05:32.751Z,17.50
2023-02-09T07:07:59.405Z,17.87
2023-02-09T07:10:26.394Z,17.20
2023-02-09T07:12:53.117Z,17.10
2023-02-09T07:15:19.751Z,18.40
2023-02-09T07:17:46.558Z,17.67
2023-02-09T07:20:13.558Z,18.30
2023-02-09T07:22:40.907Z,17.83
2023-02-09T07:25:07.850Z,17.07
2023-02-09T07:27:34.708Z,16.63
2023-02-09T07:30:01.575Z,16.00
2023-02-09T07:32:28.371Z,16.00
2023-02-09T07:34:55.052Z,13.47
2023-02-09T07:37:21.740Z,14.13
2023-02-09T07:39:48.637Z,13.93
2023-02-09T07:42:15.433Z,13.87
2023-02-09T07:44:42.124Z,15.40
2023-02-09T07:47:08.765Z,16.07
2023-02-09T07:49:35.867Z,14.10
2023-02-09T07:52:02.719Z,14.90
2023-02-09T07:54:29.374Z,13.23
2023-02-09T07:56:56.390Z,14.63
2023-02-09T07:59:23.248Z,14.73
2023-02-09T08:01:51.401Z,14.47
2023-02-09T08:04:18.167Z,15.17
2023-02-09T08:06:46.301Z,15.90
2023-02-09T08:09:16.441Z,16.47
2023-02-09T08:11:54.560Z,14.60
2023-02-09T08:14:24.715Z,19.63
2023-02-09T08:17:17.879Z,20.60
2023-02-09T08:19:46.746Z,19.50
2023-02-09T08:22:13.855Z,17.33
2023-02-09T08:24:41.317Z,16.70
2023-02-09T08:27:07.992Z,16.50
2023-02-09T08:29:34.640Z,17.00
2023-02-09T08:32:01.301Z,16.77
2023-02-09T08:34:28.077Z,15.60
2023-02-09T08:36:55.369Z,14.13
2023-02-09T08:39:21.968Z,13.60
2023-02-09T08:41:48.610Z,13.20
2023-02-09T08:44:15.264Z,12.63
2023-02-09T08:46:42.018Z,12.43
2023-02-09T08:49:08.820Z,13.23
2023-02-09T08:51:35.590Z,11.63
2023-02-09T08:54:02.311Z,11.00
2023-02-09T08:56:29.081Z,12.00
2023-02-09T08:58:55.706Z,11.57
2023-02-09T09:01:22.623Z,13.10
2023-02-09T09:03:49.593Z,9.70
2023-02-09T09:06:16.409Z,12.00
2023-02-09T09:08:43.197Z,9.20
2023-02-09T09:11:13.140Z,11.17
2023-02-09T09:13:41.085Z,10.53
2023-02-09T09:16:13.291Z,9.30
2023-02-09T09:18:39.963Z,10.70
2023-02-09T09:21:06.578Z,9.90
2023-02-09T09:23:33.254Z,10.57
2023-02-09T09:26:04.236Z,10.40
2023-02-09T09:28:31.060Z,9.47
2023-02-09T09:31:05.901Z,9.90
2023-02-09T09:33:33.330Z,9.60
2023-02-09T09:36:01.050Z,9.63
2023-02-09T09:38:28.005Z,9.47
2023-02-09T09:40:55.260Z,10.50
2023-02-09T09:43:29.110Z,10.10
2023-02-09T09:45:55.838Z,9.10
2023-02-09T09:48:31.657Z,9.70
2023-02-09T09:51:06.920Z,9.67
2023-02-09T09:53:36.177Z,7.60
2023-02-09T09:56:06.155Z,9.20
2023-02-09T09:58:33.495Z,8.20
2023-02-09T10:01:00.257Z,7.97
2023-02-09T10:03:27.517Z,8.90
2023-02-09T10:05:56.408Z,9.40
2023-02-09T10:08:39.739Z,9.47
2023-02-09T10:11:10.688Z,9.73
2023-02-09T10:13:44.437Z,9.73
2023-02-09T10:16:18.032Z,8.70
2023-02-09T10:18:45.513Z,10.07
2023-02-09T10:21:15.103Z,10.03
2023-02-09T10:23:50.830Z,8.57
2023-02-09T10:26:23.522Z,9.00
2023-02-09T10:28:56.542Z,8.70
2023-02-09T10:31:31.413Z,9.70
2023-02-09T10:34:09.527Z,9.37
2023-02-09T10:36:46.670Z,9.47
2023-02-09T10:39:16.031Z,10.13
2023-02-09T10:41:45.597Z,10.13
2023-02-09T10:44:19.903Z,10.10
2023-02-09T10:46:47.836Z,9.30
2023-02-09T10:49:35.284Z,9.67
2023-02-09T10:52:19.660Z,9.33
2023-02-09T10:54:49.249Z,11.30
2023-02-09T10:57:37.814Z,11.00
2023-02-09T11:00:16.400Z,10.90
2023-02-09T11:03:01.863Z,11.50
2023-02-09T11:05:34.728Z,10.60
2023-02-09T11:08:17.680Z,10.77
2023-02-09T11:11:08.573Z,9.30
2023-02-09T11:13:35.428Z,11.40
2023-02-09T11:16:22.216Z,13.50
2023-02-09T11:19:16.114Z,13.10
2023-02-09T11:22:02.696Z,12.07
2023-02-09T11:24:58.738Z,12.13
2023-02-09T11:28:02.992Z,12.23
2023-02-09T11:30:54.754Z,12.10
2023-02-09T11:33:42.876Z,13.47
2023-02-09T11:36:27.490Z,17.03
2023-02-09T11:39:22.398Z,14.07
2023-02-09T11:42:17.381Z,13.70
2023-02-09T11:44:55.429Z,14.03
2023-02-09T11:47:30.213Z,13.70
2023-02-09T11:50:01.901Z,15.10
2023-02-09T11:52:47.766Z,14.40
2023-02-09T11:55:46.743Z,13.70
2023-02-09T11:58:28.133Z,14.23
2023-02-09T12:01:15.545Z,14.73
2023-02-09T12:03:53.544Z,16.20
2023-02-09T12:06:22.967Z,15.20
2023-02-09T12:09:11.865Z,15.30
2023-02-09T12:11:50.611Z,15.80
2023-02-09T12:14:29.201Z,16.57
2023-02-09T12:17:28.761Z,16.40
2023-02-09T12:19:59.152Z,16.03
2023-02-09T12:22:40.972Z,17.10
2023-02-09T12:25:45.869Z,16.10
2023-02-09T12:28:17.102Z,16.77
2023-02-09T12:30:43.996Z,17.47
2023-02-09T12:33:27.520Z,16.33
2023-02-09T12:36:09.301Z,17.83
2023-02-09T12:38:56.587Z,17.60
2023-02-09T12:41:51.272Z,15.83
2023-02-09T12:44:19.335Z,18.30
2023-02-09T12:46:51.425Z,17.33
2023-02-09T12:49:21.302Z,19.90
2023-02-09T12:51:50.990Z,19.23
2023-02-09T12:54:36.473Z,19.83
2023-02-09T12:57:15.465Z,18.13
2023-02-09T12:59:51.415Z,19.80
2023-02-09T13:02:24.278Z,17.10
2023-02-09T13:05:05.176Z,17.00
2023-02-09T13:07:51.504Z,17.93
2023-02-09T13:10:44.852Z,17.40
2023-02-09T13:13:11.561Z,17.80
2023-02-09T13:16:03.270Z,18.97
2023-02-09T13:18:36.221Z,20.93
2023-02-09T13:21:27.212Z,19.13
2023-02-09T13:24:13.036Z,18.47
2023-02-09T13:26:54.158Z,19.03
2023-02-09T13:29:29.122Z,17.70
2023-02-09T13:32:02.010Z,20.80
2023-02-09T13:34:37.891Z,18.90
2023-02-09T13:37:04.551Z,19.93
2023-02-09T13:39:36.534Z,19.10
2023-02-09T13:42:17.641Z,19.37
2023-02-09T13:44:46.381Z,19.00
2023-02-09T13:47:16.710Z,18.00
2023-02-09T13:49:54.885Z,18.40
2023-02-09T13:52:23.494Z,19.23
2023-02-09T13:54:50.714Z,18.87
2023-02-09T13:57:35.453Z,18.80
2023-02-09T14:00:22.379Z,17.20
2023-02-09T14:03:01.841Z,17.10
2023-02-09T14:05:57.697Z,16.57
2023-02-09T14:08:25.922Z,16.97
2023-02-09T14:10:59.254Z,17.47
2023-02-09T14:13:36.983Z,18.03
2023-02-09T14:16:08.796Z,17.40
2023-02-09T14:18:47.749Z,17.93
2023-02-09T14:21:20.725Z,17.47
2023-02-09T14:24:13.137Z,17.87
2023-02-09T14:26:59.625Z,18.03
2023-02-09T14:29:38.052Z,17.73
2023-02-09T14:32:33.237Z,18.80
2023-02-09T14:35:20.851Z,19.00
2023-02-09T14:37:49.460Z,17.07
2023-02-09T14:40:24.109Z,17.17
2023-02-09T14:43:12.417Z,16.63
2023-02-09T14:45:43.309Z,17.93
2023-02-09T14:48:28.129Z,18.43
2023-02-09T14:50:57.233Z,18.27
2023-02-09T14:53:27.174Z,16.87
2023-02-09T14:55:54.868Z,17.90
2023-02-09T14:58:27.300Z,16.80
2023-02-09T15:00:56.183Z,16.60
2023-02-09T15:03:23.281Z,17.50
2023-02-09T15:05:54.553Z,18.77
2023-02-09T15:08:23.843Z,17.53
2023-02-09T15:10:53.950Z,18.20
2023-02-09T15:13:21.375Z,17.97
2023-02-09T15:15:48.385Z,17.63
2023-02-09T15:18:19.151Z,17.30
2023-02-09T15:20:46.337Z,17.77
2023-02-09T15:23:13.409Z,16.80
2023-02-09T15:25:41.264Z,16.73
2023-02-09T15:28:18.591Z,18.80
2023-02-09T15:30:45.653Z,17.30
2023-02-09T15:33:13.087Z,18.47
2023-02-09T15:35:41.080Z,18.93
2023-02-09T15:38:11.012Z,17.87
2023-02-09T15:41:01.798Z,20.73
2023-02-09T15:43:48.013Z,17.20
2023-02-09T15:46:33.960Z,16.73
2023-02-09T15:49:00.836Z,17.50
2023-02-09T15:51:33.917Z,19.37
2023-02-09T15:54:05.327Z,20.27
2023-02-09T15:56:32.012Z,25.40
2023-02-09T15:59:03.859Z,23.80
2023-02-09T16:01:37.020Z,20.60
2023-02-09T16:04:13.853Z,19.03
2023-02-09T16:06:47.842Z,18.00
2023-02-09T16:09:24.888Z,18.57
2023-02-09T16:11:51.563Z,17.17
2023-02-09T16:14:23.288Z,15.93
2023-02-09T16:16:50.251Z,18.50
2023-02-09T16:19:17.240Z,17.50
2023-02-09T16:21:46.921Z,17.40
2023-02-09T16:24:25.769Z,19.10
2023-02-09T16:26:52.417Z,17.20
2023-02-09T16:29:19.160Z,16.53
2023-02-09T16:31:45.894Z,17.57
2023-02-09T16:34:15.426Z,17.47
2023-02-09T16:36:43.027Z,17.90
2023-02-09T16:39:17.910Z,17.93
2023-02-09T16:41:49.729Z,18.47
2023-02-09T16:44:22.556Z,16.40
2023-02-09T16:46:53.628Z,16.60
2023-02-09T16:49:32.809Z,18.57
2023-02-09T16:52:04.510Z,19.90
2023-02-09T16:54:42.560Z,19.63
2023-02-09T16:57:14.990Z,18.50
2023-02-09T16:59:41.718Z,18.60
2023-02-09T17:02:42.301Z,18.43
2023-02-09T17:05:24.353Z,17.67
2023-02-09T17:08:18.415Z,16.83
2023-02-09T17:10:46.809Z,17.93
2023-02-09T17:13:14.553Z,17.70
2023-02-09T17:15:46.358Z,18.50
2023-02-09T17:18:19.763Z,21.17
2023-02-09T17:20:50.790Z,19.30
2023-02-09T17:23:21.327Z,19.67
2023-02-09T17:25:50.748Z,18.23
2023-02-09T17:28:19.184Z,18.97
2023-02-09T17:30:48.011Z,17.83
2023-02-09T17:33:28.578Z,17.43
2023-02-09T17:36:25.031Z,20.17
2023-02-09T17:38:44.843Z,19.07
2023-02-09T17:41:43.019Z,20.00
2023-02-09T17:44:26.461Z,17.70
2023-02-09T17:46:58.642Z,17.80
2023-02-09T17:49:25.474Z,18.30
2023-02-09T17:51:53.338Z,19.10
2023-02-09T17:54:21.133Z,18.57
2023-02-09T17:56:47.988Z,16.73
2023-02-09T17:59:14.911Z,17.43
2023-02-09T18:01:46.806Z,19.13
2023-02-09T18:04:22.885Z,17.27
2023-02-09T18:06:49.950Z,17.30
2023-02-09T18:09:16.760Z,17.67
2023-02-09T18:11:52.331Z,16.63
2023-02-09T18:14:23.016Z,18.60
2023-02-09T18:16:50.498Z,17.30
2023-02-09T18:19:17.368Z,17.20
2023-02-09T18:21:50.685Z,17.83
2023-02-09T18:24:19.359Z,17.03
2023-02-09T18:26:47.960Z,18.03
2023-02-09T18:29:14.865Z,17.30
2023-02-09T18:31:41.560Z,17.67
2023-02-09T18:34:09.052Z,19.23
2023-02-09T18:36:36.104Z,17.43
2023-02-09T18:39:03.374Z,16.83
2023-02-09T18:41:30.044Z,17.80
2023-02-09T18:43:56.672Z,16.73
2023-02-09T18:46:27.123Z,19.00
2023-02-09T18:48:54.727Z,18.63
2023-02-09T18:51:21.904Z,23.60
2023-02-09T18:53:50.304Z,30.53
2023-02-09T18:56:21.679Z,19.97
2023-02-09T18:58:50.441Z,17.90
2023-02-09T19:01:20.635Z,18.40
2023-02-09T19:03:52.307Z,18.13
2023-02-09T19:06:20.443Z,19.60
2023-02-09T19:08:48.154Z,19.23
2023-02-09T19:11:17.479Z,19.13
2023-02-09T19:14:04.276Z,17.87
2023-02-09T19:16:31.003Z,17.87
2023-02-09T19:18:58.373Z,18.10
2023-02-09T19:21:25.251Z,17.00
2023-02-09T19:23:52.101Z,17.73
2023-02-09T19:26:19.004Z,19.03
2023-02-09T19:28:45.666Z,18.20
2023-02-09T19:31:16.776Z,19.23
2023-02-09T19:33:43.579Z,17.90
2023-02-09T19:36:10.412Z,18.57
2023-02-09T19:38:37.111Z,17.07
2023-02-09T19:41:11.623Z,21.23
2023-02-09T19:43:39.784Z,21.70
2023-02-09T19:46:07.483Z,22.10
2023-02-09T19:48:34.153Z,20.43
2023-02-09T19:51:01.016Z,22.50
2023-02-09T19:53:28.207Z,21.53
2023-02-09T19:55:55.336Z,20.50
2023-02-09T19:58:22.536Z,22.50
2023-02-09T20:00:50.748Z,22.10
2023-02-09T20:03:18.292Z,22.90
2023-02-09T20:05:45.716Z,21.90
2023-02-09T20:08:14.374Z,18.93
2023-02-09T20:10:41.043Z,20.60
2023-02-09T20:13:08.457Z,21.60
2023-02-09T20:15:35.250Z,20.83
2023-02-09T20:18:01.900Z,21.00
2023-02-09T20:20:28.654Z,18.17
2023-02-09T20:22:55.310Z,22.57
2023-02-09T20:25:22.116Z,20.30
2023-02-09T20:27:50.006Z,19.90
2023-02-09T20:30:16.892Z,19.80
2023-02-09T20:32:43.752Z,19.50
2023-02-09T20:35:11.885Z,20.80
2023-02-09T20:37:39.161Z,20.00
2023-02-09T20:40:06.620Z,21.30
2023-02-09T20:42:51.810Z,20.67
2023-02-09T20:45:37.478Z,20.57
2023-02-09T20:48:05.381Z,22.50
2023-02-09T20:50:33.342Z,21.77
2023-02-09T20:53:01.474Z,21.73
2023-02-09T20:55:29.432Z,22.00
2023-02-09T20:57:56.311Z,21.40
2023-02-09T21:00:23.223Z,20.37
2023-02-09T21:02:50.049Z,22.60
2023-02-09T21:05:16.772Z,21.43
2023-02-09T21:07:43.843Z,20.83
2023-02-09T21:10:12.888Z,21.63
2023-02-09T21:12:39.756Z,19.60
2023-02-09T21:15:07.343Z,20.70
2023-02-09T21:17:34.209Z,19.30
2023-02-09T21:20:01.353Z,20.70
2023-02-09T21:22:28.073Z,19.60
2023-02-09T21:24:54.762Z,19.40
2023-02-09T21:27:21.407Z,20.57
2023-02-09T21:29:48.184Z,19.47
2023-02-09T21:32:14.880Z,20.83
2023-02-09T21:34:42.731Z,20.53
2023-02-09T21:37:12.822Z,20.37
2023-02-09T21:39:40.342Z,20.67
2023-02-09T21:42:26.035Z,21.73
2023-02-09T21:44:54.847Z,23.17
2023-02-09T21:47:32.236Z,23.73
2023-02-09T21:49:59.602Z,22.97
2023-02-09T21:52:27.189Z,22.30
2023-02-09T21:54:54.003Z,22.03
2023-02-09T21:57:21.147Z,23.63
2023-02-09T21:59:47.800Z,23.53
2023-02-09T22:02:16.966Z,21.53
2023-02-09T22:04:44.654Z,22.37
2023-02-09T22:07:12.761Z,21.30
2023-02-09T22:09:39.768Z,20.10
2023-02-09T22:12:06.959Z,21.37
2023-02-09T22:14:33.848Z,20.30
2023-02-09T22:17:00.493Z,20.33
2023-02-09T22:19:27.223Z,20.77
2023-02-09T22:21:56.969Z,20.57
2023-02-09T22:24:24.524Z,19.30
2023-02-09T22:26:51.148Z,21.77
2023-02-09T22:29:17.911Z,22.70
2023-02-09T22:31:45.017Z,22.60
2023-02-09T22:34:12.251Z,21.50
2023-02-09T22:36:39.829Z,22.17
2023-02-09T22:39:07.386Z,20.63
2023-02-09T22:41:34.395Z,22.17
2023-02-09T22:44:03.900Z,21.67
2023-02-09T22:46:39.213Z,20.77
2023-02-09T22:49:13.068Z,21.00
2023-02-09T22:51:39.777Z,20.60
2023-02-09T22:54:06.687Z,20.00
2023-02-09T22:56:34.076Z,20.07
2023-02-09T22:59:01.584Z,20.17
2023-02-09T23:01:29.270Z,21.67
2023-02-09T23:03:56.168Z,21.17
2023-02-09T23:06:27.386Z,20.53
2023-02-09T23:09:00.510Z,21.37
2023-02-09T23:11:28.434Z,21.73
2023-02-09T23:14:11.720Z,21.77
2023-02-09T23:16:40.803Z,22.00
2023-02-09T23:19:09.562Z,19.97
2023-02-09T23:21:39.291Z,22.40
2023-02-09T23:24:06.699Z,20.07
2023-02-09T23:26:33.698Z,19.90
2023-02-09T23:29:04.640Z,20.67
2023-02-09T23:31:31.749Z,21.97
2023-02-09T23:33:58.582Z,20.53
2023-02-09T23:36:28.383Z,20.83
2023-02-09T23:38:57.896Z,19.53
2023-02-09T23:41:24.824Z,20.40
2023-02-09T23:43:52.406Z,21.80
2023-02-09T23:46:21.991Z,21.70
2023-02-09T23:48:49.444Z,21.80
2023-02-09T23:51:19.018Z,21.80
2023-02-09T23:53:47.438Z,20.70
2023-02-09T23:56:15.697Z,20.27
2023-02-09T23:58:45.722Z,20.53
